Ryderwood, WA (98581)

2:24 PM PST on November 23, 2017 (GMT -0800)
Cougar Flat | | Change Station
Active Advisory: Flood Warning

Elev 364 ft 46.41 °N, 122.98 °W | Updated 4 seconds ago

Mostly Cloudy
Mostly Cloudy
53.4 °F
Feels Like 53.4 °F
N
0.0
Wind Variable Wind from SW
Gusts 0.0 mph

Today
High -- | Low -- °F
--% Chance of Precip.
Yesterday
High -- | Low -- °F
Precip. -- in
Pressure 29.93 in
Visibility 10.0 miles
Clouds Mostly Cloudy 1600 ft
Overcast 3100 ft
Dew Point 49 °F
Humidity 86%
Rainfall 0.66 in
Snow Depth Not available.
7:25 AM 4:31 PM
Waxing Crescent, 25% visible
METAR KKLS 232156Z AUTO 00000KT 10SM -RA BKN016 OVC031 13/11 A2992 RMK AO2 SLP135 P0001 T01280111
Pressure 29.93 in
Visibility 10.0 miles
Clouds Mostly Cloudy 1600 ft
Overcast 3100 ft
Dew Point 49 °F
Humidity 86%
Rainfall 0.66 in
Snow Depth Not available.
7:25 AM 4:31 PM
Waxing Crescent, 25% visible
METAR KKLS 232156Z AUTO 00000KT 10SM -RA BKN016 OVC031 13/11 A2992 RMK AO2 SLP135 P0001 T01280111

Get Your Daily Forecast Email!

Thanks for signing up!

Be on the lookout for a verification email in your inbox.

You'll start receiving severe weather alerts in your inbox..

×

10-Day Weather Forecast

Almanac

Astronomy

Nov. 23, 2017 Rise Set
Actual Time
Civil Twilight
Nautical Twilight
Astronomical Twilight
Moon
Length of Visible Light
Length of Day
Tomorrow will be .
, % of the Moon is Illuminated

Today's Extremes

State Highs State Lows

Community

WunderPhotos

Category 6

Welcome to Category 6. This is the collective home for Weather Underground's featured writeups by Dr. Jeff Masters (right), Bob Henson (left), Chris Burt, and other regular contributors.

Nearby

Air Quality

  Air Quality AQ Index Pollutant
Not available.

Snow Depth

Station Depth Elevation

Earthquake Activity

City Distance Mag. Time & Date
Minimum magnitude displayed is 2.5.

Coastal Water Temperatures

Place Temperature

Stations

Nearby Weather Stations

Station Location Temp. Windchill Dew Point Humidity Wind Precip. Elev Updated Type
                   

Watches & Warnings

Flood Warning
Issued: 9:24 AM PST Nov. 23, 2017 – National Weather Service

The Flood Warning continues for
the Grays River near Rosburg.
* At 8 am Thursday the stage was... 13.2 feet / 10782 cfs.
* Flood stage is 12.0 feet and flood flow is 8200 cfs.
* Forecast... this river crested at 14.0 feet at 3 am Thursday. It is
expected to fall below flood stage around 5 PM Thursday and
continue falling for the next couple days.
* Impact... above 14 feet, expect widespread lowland flooding and
numerous flooded roads near Rosburg and Hwy 4. This includes the
roadway approaches to the Altoona bridge over the Grays River.


Lat... Lon 4630 12368 4631 12370 4636 12361 4637 12355 4635 12356